Time;durP1;ratioP1;P1;durP2;ratioP2;P2;SDS_P1;SDS_P2;PMS_P1;PMS_P2;Temp;Humidity;BMP_temperature;BMP_pressure;BME280_temperature;BME280_humidity;BME280_pressure;Samples;Min_cycle;Max_cycle;Signal;HPM_P1;HPM_P2
2022/03/19 00:02:22;;;;;;;17.37;4.77;;;;;;;;;;5049494;28;20473;-65
2022/03/19 00:04:48;;;;;;;19.33;5.00;;;;;;;;;;5049043;28;20048;-66
2022/03/19 00:07:14;;;;;;;26.87;5.10;;;;;;;;;;5049000;28;20374;-65
2022/03/19 00:09:41;;;;;;;24.07;5.90;;;;;;;;;;5050147;28;20059;-66
2022/03/19 00:12:07;;;;;;;22.43;6.33;;;;;;;;;;5042691;28;20087;-65
2022/03/19 00:14:34;;;;;;;23.07;6.73;;;;;;;;;;5037691;28;20346;-65
2022/03/19 00:16:59;;;;;;;20.10;5.30;;;;;;;;;;5038463;28;20692;-65
2022/03/19 00:19:27;;;;;;;19.23;5.30;;;;;;;;;;5039185;28;20041;-65
2022/03/19 00:21:53;;;;;;;23.80;5.33;;;;;;;;;;5039266;28;20477;-65
2022/03/19 00:24:20;;;;;;;17.73;4.40;;;;;;;;;;5039451;28;20319;-65
2022/03/19 00:26:46;;;;;;;31.63;6.97;;;;;;;;;;5038987;28;20095;-65
2022/03/19 00:29:12;;;;;;;23.40;5.40;;;;;;;;;;5037308;28;20803;-65
2022/03/19 00:31:38;;;;;;;22.57;5.23;;;;;;;;;;5038309;28;20287;-66
2022/03/19 00:34:04;;;;;;;18.47;5.77;;;;;;;;;;5036224;28;20056;-66
2022/03/19 00:36:30;;;;;;;18.63;5.10;;;;;;;;;;5042780;28;20371;-67
2022/03/19 00:38:56;;;;;;;22.80;6.63;;;;;;;;;;5038604;28;20279;-67
2022/03/19 00:41:22;;;;;;;26.20;6.97;;;;;;;;;;5038619;28;20334;-67
2022/03/19 00:43:48;;;;;;;32.70;6.40;;;;;;;;;;5036965;28;20690;-67
2022/03/19 00:46:15;;;;;;;24.43;7.13;;;;;;;;;;5053690;28;20045;-66
2022/03/19 00:48:41;;;;;;;19.93;5.57;;;;;;;;;;5038279;28;20797;-67
2022/03/19 00:51:08;;;;;;;25.73;7.73;;;;;;;;;;5037202;28;20299;-67
2022/03/19 00:53:34;;;;;;;23.90;5.70;;;;;;;;;;5038409;28;20349;-67
2022/03/19 00:56:00;;;;;;;18.67;5.57;;;;;;;;;;5035543;28;20292;-67
2022/03/19 00:58:26;;;;;;;36.57;7.10;;;;;;;;;;5038143;28;20370;-66
2022/03/19 01:00:52;;;;;;;21.07;6.27;;;;;;;;;;5038754;28;20286;-67
2022/03/19 01:03:18;;;;;;;30.83;6.37;;;;;;;;;;5038277;28;20757;-67
2022/03/19 01:05:44;;;;;;;25.37;5.50;;;;;;;;;;5038743;28;20292;-67
2022/03/19 01:08:11;;;;;;;19.90;4.97;;;;;;;;;;5036991;28;20346;-66
2022/03/19 01:10:37;;;;;;;29.27;5.77;;;;;;;;;;5037822;28;20048;-67
2022/03/19 01:13:06;;;;;;;26.23;7.73;;;;;;;;;;5038719;28;20311;-66
2022/03/19 01:15:32;;;;;;;18.93;6.53;;;;;;;;;;5038628;28;20280;-66
2022/03/19 01:18:00;;;;;;;26.17;5.17;;;;;;;;;;5037813;28;20285;-66
2022/03/19 01:20:26;;;;;;;29.70;5.03;;;;;;;;;;5034331;28;21045;-66
2022/03/19 01:22:52;;;;;;;34.70;7.23;;;;;;;;;;5038695;28;20318;-66
2022/03/19 01:25:19;;;;;;;26.87;5.40;;;;;;;;;;5037746;28;20128;-66
2022/03/19 01:27:46;;;;;;;20.53;5.07;;;;;;;;;;5039238;28;20057;-66
2022/03/19 01:30:13;;;;;;;29.23;6.87;;;;;;;;;;5038714;28;20358;-67
2022/03/19 01:32:40;;;;;;;25.33;4.63;;;;;;;;;;5037390;28;20284;-66
2022/03/19 01:35:06;;;;;;;30.27;6.53;;;;;;;;;;5037017;28;20351;-66
2022/03/19 01:37:32;;;;;;;17.67;5.57;;;;;;;;;;5042392;28;20282;-67
2022/03/19 01:39:58;;;;;;;22.73;6.57;;;;;;;;;;5048766;28;20291;-67
2022/03/19 01:42:28;;;;;;;27.87;5.47;;;;;;;;;;5048258;28;20302;-67
2022/03/19 01:44:55;;;;;;;22.60;5.27;;;;;;;;;;5048585;28;20287;-67
2022/03/19 01:47:21;;;;;;;19.77;5.13;;;;;;;;;;5048656;28;20330;-66
2022/03/19 01:49:48;;;;;;;17.40;4.20;;;;;;;;;;5035773;28;20276;-66
2022/03/19 01:52:14;;;;;;;31.00;5.43;;;;;;;;;;5038275;28;20829;-66
2022/03/19 01:54:42;;;;;;;21.87;5.50;;;;;;;;;;5036729;28;20311;-66
2022/03/19 01:57:08;;;;;;;22.17;5.20;;;;;;;;;;5038069;28;20315;-66
2022/03/19 01:59:36;;;;;;;26.47;5.73;;;;;;;;;;5035905;28;20284;-66
2022/03/19 02:02:06;;;;;;;26.23;5.50;;;;;;;;;;5037803;28;20646;-66
2022/03/19 02:04:34;;;;;;;25.73;5.47;;;;;;;;;;5038437;28;20785;-66
2022/03/19 02:07:01;;;;;;;31.63;7.10;;;;;;;;;;5037061;28;20638;-66
2022/03/19 02:09:27;;;;;;;23.33;5.70;;;;;;;;;;5038852;28;20396;-66
2022/03/19 02:11:53;;;;;;;27.00;6.97;;;;;;;;;;5036288;28;20292;-66
2022/03/19 02:14:19;;;;;;;14.63;4.70;;;;;;;;;;5037753;28;20318;-66
2022/03/19 02:16:47;;;;;;;21.03;5.23;;;;;;;;;;5037751;28;20338;-66
2022/03/19 02:19:13;;;;;;;25.00;6.80;;;;;;;;;;5035710;28;20292;-66
2022/03/19 02:21:46;;;;;;;23.60;5.47;;;;;;;;;;5038928;28;20657;-66
2022/03/19 02:26:57;;;;;;;33.43;6.67;;;;;;;;;;5037938;28;20049;-66
2022/03/19 02:29:24;;;;;;;21.50;7.10;;;;;;;;;;5037182;28;20287;-66
2022/03/19 02:31:54;;;;;;;25.60;5.17;;;;;;;;;;5035977;28;20291;-66
2022/03/19 02:34:20;;;;;;;25.17;6.30;;;;;;;;;;5038121;28;20303;-66
2022/03/19 02:36:46;;;;;;;23.30;7.10;;;;;;;;;;5034925;28;20884;-66
2022/03/19 02:39:21;;;;;;;25.47;6.37;;;;;;;;;;5035368;28;20281;-66
2022/03/19 02:41:49;;;;;;;21.43;6.30;;;;;;;;;;5037924;28;20292;-66
2022/03/19 02:44:16;;;;;;;21.37;5.83;;;;;;;;;;5040444;28;20292;-66
2022/03/19 02:46:43;;;;;;;23.67;5.30;;;;;;;;;;5039014;28;20290;-66
2022/03/19 02:49:09;;;;;;;26.70;5.77;;;;;;;;;;5040383;28;20307;-66
2022/03/19 02:51:39;;;;;;;25.80;6.03;;;;;;;;;;5042404;28;20631;-66
2022/03/19 02:54:06;;;;;;;17.83;4.73;;;;;;;;;;5040572;28;20303;-66
2022/03/19 02:56:36;;;;;;;24.83;5.87;;;;;;;;;;5041664;28;21001;-66
2022/03/19 02:59:09;;;;;;;15.33;6.33;;;;;;;;;;5046600;28;20287;-67
2022/03/19 03:01:37;;;;;;;22.85;5.85;;;;;;;;;;5051371;28;20294;-66
2022/03/19 03:04:03;;;;;;;20.87;6.03;;;;;;;;;;5051946;28;20053;-66
2022/03/19 03:06:29;;;;;;;21.20;6.37;;;;;;;;;;5051217;28;20326;-66
2022/03/19 03:08:56;;;;;;;24.37;5.70;;;;;;;;;;5051174;28;20284;-66
2022/03/19 03:11:22;;;;;;;29.97;6.10;;;;;;;;;;5051335;28;20630;-66
2022/03/19 03:13:48;;;;;;;31.80;6.33;;;;;;;;;;5051001;28;20307;-67
2022/03/19 03:16:14;;;;;;;24.63;6.43;;;;;;;;;;5051083;28;20315;-66
2022/03/19 03:18:40;;;;;;;26.97;6.57;;;;;;;;;;5050528;28;20310;-66
2022/03/19 03:21:06;;;;;;;22.63;6.03;;;;;;;;;;5050892;28;20833;-67
2022/03/19 03:23:33;;;;;;;34.00;7.73;;;;;;;;;;5050730;28;20790;-66
2022/03/19 03:25:59;;;;;;;29.43;7.10;;;;;;;;;;5050832;28;20283;-66
2022/03/19 03:28:27;;;;;;;33.63;6.80;;;;;;;;;;5050621;28;20781;-67
2022/03/19 03:30:53;;;;;;;30.73;6.97;;;;;;;;;;5050721;28;20785;-67
2022/03/19 03:33:19;;;;;;;26.37;7.33;;;;;;;;;;5050694;28;20314;-66
2022/03/19 03:35:45;;;;;;;28.17;7.57;;;;;;;;;;5050310;28;20319;-67
2022/03/19 03:38:12;;;;;;;24.50;6.97;;;;;;;;;;5050195;28;20294;-67
2022/03/19 03:40:38;;;;;;;27.40;7.87;;;;;;;;;;5050467;28;20770;-67
2022/03/19 03:43:04;;;;;;;25.23;6.83;;;;;;;;;;5050521;28;20291;-67
2022/03/19 03:45:31;;;;;;;26.73;6.90;;;;;;;;;;5050676;28;20275;-67
2022/03/19 03:47:57;;;;;;;34.27;7.30;;;;;;;;;;5050471;28;20287;-67
2022/03/19 03:50:23;;;;;;;22.60;7.63;;;;;;;;;;5050101;28;20283;-67
2022/03/19 03:52:50;;;;;;;25.60;7.70;;;;;;;;;;5050037;28;20855;-67
2022/03/19 03:55:16;;;;;;;25.40;7.77;;;;;;;;;;5050239;28;20366;-67
2022/03/19 03:57:42;;;;;;;27.63;7.90;;;;;;;;;;5050256;28;20276;-67
2022/03/19 04:00:08;;;;;;;29.13;8.03;;;;;;;;;;5050190;28;20283;-67
2022/03/19 04:02:35;;;;;;;24.50;7.47;;;;;;;;;;5050508;28;20390;-66
2022/03/19 04:05:01;;;;;;;30.93;8.00;;;;;;;;;;5050490;28;20374;-67
2022/03/19 04:07:27;;;;;;;24.77;7.27;;;;;;;;;;5049694;28;20292;-66
2022/03/19 04:09:54;;;;;;;34.07;8.07;;;;;;;;;;5050227;28;20855;-66
2022/03/19 04:12:22;;;;;;;23.20;7.53;;;;;;;;;;5050010;28;20287;-67
2022/03/19 04:14:48;;;;;;;26.53;8.30;;;;;;;;;;5049005;28;20320;-66
2022/03/19 04:17:14;;;;;;;32.80;9.27;;;;;;;;;;5049765;28;20304;-67
2022/03/19 04:19:40;;;;;;;27.97;9.00;;;;;;;;;;5049793;28;20286;-67
2022/03/19 04:22:06;;;;;;;27.80;8.20;;;;;;;;;;5049708;28;20290;-66
2022/03/19 04:24:32;;;;;;;25.97;8.53;;;;;;;;;;5050002;28;20378;-67
2022/03/19 04:26:58;;;;;;;35.10;9.03;;;;;;;;;;5049921;28;20403;-67
2022/03/19 04:29:24;;;;;;;30.60;8.23;;;;;;;;;;5049459;28;20284;-67
2022/03/19 04:31:50;;;;;;;28.77;8.53;;;;;;;;;;5049619;28;20298;-67
2022/03/19 04:34:16;;;;;;;25.47;8.63;;;;;;;;;;5049411;28;20311;-67
2022/03/19 04:36:42;;;;;;;34.33;8.97;;;;;;;;;;5049409;28;20275;-67
2022/03/19 04:39:09;;;;;;;23.83;9.57;;;;;;;;;;5048982;28;20298;-67
2022/03/19 04:41:36;;;;;;;27.87;8.10;;;;;;;;;;5048015;28;20400;-67
2022/03/19 04:44:02;;;;;;;29.10;9.13;;;;;;;;;;5049672;28;20283;-67
2022/03/19 04:46:28;;;;;;;25.27;9.03;;;;;;;;;;5048957;28;20292;-67
2022/03/19 04:48:55;;;;;;;24.20;8.97;;;;;;;;;;5047791;28;20319;-67
2022/03/19 04:51:22;;;;;;;34.97;9.13;;;;;;;;;;5049439;28;20287;-67
2022/03/19 04:53:52;;;;;;;27.50;9.63;;;;;;;;;;5049067;28;20314;-67
2022/03/19 04:56:19;;;;;;;41.83;11.30;;;;;;;;;;5049063;28;20705;-67
2022/03/19 04:58:46;;;;;;;34.17;9.57;;;;;;;;;;5049001;28;20286;-67
2022/03/19 05:01:12;;;;;;;29.23;9.47;;;;;;;;;;5049028;28;20323;-67
2022/03/19 05:03:38;;;;;;;33.67;10.40;;;;;;;;;;5048996;28;20643;-67
2022/03/19 05:06:04;;;;;;;31.30;9.23;;;;;;;;;;5048694;28;20701;-67
2022/03/19 05:08:30;;;;;;;27.33;8.63;;;;;;;;;;5048482;28;20292;-67
2022/03/19 05:11:14;;;;;;;41.50;10.03;;;;;;;;;;5048975;28;20357;-67
2022/03/19 05:13:41;;;;;;;24.47;8.67;;;;;;;;;;5048857;28;20095;-67
2022/03/19 05:16:07;;;;;;;26.13;9.83;;;;;;;;;;5048932;28;20361;-66
2022/03/19 05:18:33;;;;;;;26.67;8.73;;;;;;;;;;5048971;28;20284;-67
2022/03/19 05:20:59;;;;;;;28.87;9.60;;;;;;;;;;5047461;28;20287;-67
2022/03/19 05:23:25;;;;;;;24.30;9.10;;;;;;;;;;5048470;28;20371;-67
2022/03/19 05:25:52;;;;;;;33.53;10.83;;;;;;;;;;5048613;28;20618;-66
2022/03/19 05:28:18;;;;;;;29.30;10.13;;;;;;;;;;5048691;28;20293;-66
2022/03/19 05:30:44;;;;;;;21.33;9.83;;;;;;;;;;5048949;28;20628;-67
2022/03/19 05:33:11;;;;;;;32.07;8.93;;;;;;;;;;5048577;28;20314;-67
2022/03/19 05:35:38;;;;;;;24.43;9.90;;;;;;;;;;5048536;28;20350;-67
2022/03/19 05:38:07;;;;;;;32.87;9.03;;;;;;;;;;5048500;28;20350;-67
2022/03/19 05:40:33;;;;;;;31.13;10.07;;;;;;;;;;5048462;28;20284;-67
2022/03/19 05:42:59;;;;;;;27.93;8.90;;;;;;;;;;5048734;28;20286;-67
2022/03/19 05:45:25;;;;;;;20.10;8.30;;;;;;;;;;5047894;28;20045;-67
2022/03/19 05:47:51;;;;;;;30.07;7.50;;;;;;;;;;5047919;28;20293;-67
2022/03/19 05:50:17;;;;;;;32.63;6.97;;;;;;;;;;5048360;28;20307;-67
2022/03/19 05:52:47;;;;;;;22.00;8.60;;;;;;;;;;5048186;28;20295;-67
2022/03/19 05:55:14;;;;;;;35.43;9.80;;;;;;;;;;5048225;28;20294;-67
2022/03/19 05:57:40;;;;;;;25.47;6.73;;;;;;;;;;5048175;28;20287;-67
2022/03/19 06:00:08;;;;;;;26.80;7.07;;;;;;;;;;5048420;28;20283;-67
2022/03/19 06:02:38;;;;;;;24.17;7.67;;;;;;;;;;5048055;28;20358;-67
2022/03/19 06:05:04;;;;;;;25.53;9.90;;;;;;;;;;5048328;28;20295;-67
2022/03/19 06:07:30;;;;;;;33.63;9.37;;;;;;;;;;5037950;28;20276;-67
2022/03/19 06:09:56;;;;;;;23.70;8.23;;;;;;;;;;5038050;28;20272;-67
2022/03/19 06:12:22;;;;;;;28.93;8.10;;;;;;;;;;5028646;28;20041;-67
2022/03/19 06:14:53;;;;;;;32.57;11.03;;;;;;;;;;5027825;28;20824;-67
2022/03/19 06:17:19;;;;;;;25.97;9.73;;;;;;;;;;5032080;28;20310;-67
2022/03/19 06:19:45;;;;;;;34.00;11.20;;;;;;;;;;5050601;28;20292;-67
2022/03/19 06:22:11;;;;;;;26.63;7.73;;;;;;;;;;5051248;28;20303;-67
2022/03/19 06:24:37;;;;;;;22.50;6.67;;;;;;;;;;5051977;28;20049;-67
2022/03/19 06:27:04;;;;;;;25.10;7.87;;;;;;;;;;5051269;28;20662;-67
2022/03/19 06:29:30;;;;;;;22.53;7.50;;;;;;;;;;5049773;28;20310;-67
2022/03/19 06:31:56;;;;;;;23.83;9.40;;;;;;;;;;5042557;28;20379;-67
2022/03/19 06:34:22;;;;;;;31.03;9.00;;;;;;;;;;5035357;28;20304;-67
2022/03/19 06:39:33;;;;;;;31.70;8.53;;;;;;;;;;5048260;28;20378;-67
2022/03/19 06:41:59;;;;;;;15.30;6.30;;;;;;;;;;5039061;28;20292;-67
2022/03/19 06:44:25;;;;;;;22.60;6.50;;;;;;;;;;5040762;28;20907;-66
2022/03/19 06:46:51;;;;;;;25.73;7.37;;;;;;;;;;5042509;28;20963;-67
2022/03/19 06:49:17;;;;;;;21.17;6.90;;;;;;;;;;5041927;28;20095;-67
2022/03/19 06:51:43;;;;;;;23.70;6.67;;;;;;;;;;5041299;28;20272;-67
2022/03/19 06:54:09;;;;;;;25.37;6.53;;;;;;;;;;5039643;28;20029;-67
2022/03/19 06:56:35;;;;;;;28.17;7.40;;;;;;;;;;5039387;28;20302;-67
2022/03/19 06:59:01;;;;;;;18.07;6.70;;;;;;;;;;5042102;28;20288;-66
2022/03/19 07:01:27;;;;;;;18.60;8.97;;;;;;;;;;5039637;28;20277;-67
2022/03/19 07:03:53;;;;;;;23.67;6.83;;;;;;;;;;5041997;28;20291;-67
2022/03/19 07:06:19;;;;;;;20.93;7.73;;;;;;;;;;5039058;28;20041;-67
2022/03/19 07:08:45;;;;;;;17.60;6.90;;;;;;;;;;5041766;28;20341;-67
2022/03/19 07:11:11;;;;;;;26.73;7.20;;;;;;;;;;5042044;28;20065;-67
2022/03/19 07:13:38;;;;;;;19.97;7.60;;;;;;;;;;5038928;28;20045;-67
2022/03/19 07:16:06;;;;;;;23.83;6.27;;;;;;;;;;5041070;28;20036;-66
2022/03/19 07:18:32;;;;;;;18.80;5.80;;;;;;;;;;5039666;28;20045;-66
2022/03/19 07:20:58;;;;;;;22.40;6.97;;;;;;;;;;5038580;28;20053;-67
2022/03/19 07:23:24;;;;;;;22.17;6.63;;;;;;;;;;5040644;28;20043;-66
2022/03/19 07:25:50;;;;;;;27.63;7.87;;;;;;;;;;5038779;28;20098;-66
2022/03/19 07:28:17;;;;;;;23.43;7.30;;;;;;;;;;5041705;28;20052;-67
2022/03/19 07:30:43;;;;;;;18.03;8.07;;;;;;;;;;5037778;28;20103;-67
2022/03/19 07:33:11;;;;;;;18.17;6.50;;;;;;;;;;5039464;28;20052;-67
2022/03/19 07:35:37;;;;;;;23.83;7.60;;;;;;;;;;5040027;28;20451;-67
2022/03/19 07:38:05;;;;;;;23.93;6.03;;;;;;;;;;5038337;28;20037;-67
2022/03/19 07:43:16;;;;;;;17.47;7.17;;;;;;;;;;5044323;28;20488;-67
2022/03/19 07:45:43;;;;;;;19.30;6.17;;;;;;;;;;5038588;28;20510;-67
2022/03/19 07:48:10;;;;;;;23.37;6.57;;;;;;;;;;5031981;28;20086;-67
2022/03/19 07:50:37;;;;;;;12.87;5.20;;;;;;;;;;5047916;28;20044;-67
2022/03/19 07:53:04;;;;;;;25.13;6.47;;;;;;;;;;5030245;28;20091;-67
2022/03/19 07:55:30;;;;;;;21.57;6.97;;;;;;;;;;5037467;28;20098;-67
2022/03/19 07:57:56;;;;;;;17.63;5.03;;;;;;;;;;5060461;28;20461;-67
2022/03/19 08:00:22;;;;;;;19.60;4.70;;;;;;;;;;5049344;28;20049;-67
2022/03/19 08:02:49;;;;;;;18.93;5.13;;;;;;;;;;5048494;28;20053;-68
2022/03/19 08:05:15;;;;;;;15.80;4.40;;;;;;;;;;5050002;28;20060;-67
2022/03/19 08:07:41;;;;;;;18.57;5.53;;;;;;;;;;5049581;28;20077;-67
2022/03/19 08:10:08;;;;;;;24.73;7.30;;;;;;;;;;5050205;28;20099;-67
2022/03/19 08:12:34;;;;;;;21.53;5.03;;;;;;;;;;5039923;28;20048;-67
2022/03/19 08:15:02;;;;;;;19.30;5.93;;;;;;;;;;5038082;28;20044;-67
2022/03/19 08:17:28;;;;;;;12.77;5.27;;;;;;;;;;5038207;28;20091;-67
2022/03/19 08:19:57;;;;;;;19.70;4.97;;;;;;;;;;5039411;28;20470;-67
2022/03/19 08:22:23;;;;;;;17.83;4.77;;;;;;;;;;5036618;28;20104;-67
2022/03/19 08:24:50;;;;;;;14.40;4.57;;;;;;;;;;5030181;28;20046;-67
2022/03/19 08:27:16;;;;;;;17.17;4.40;;;;;;;;;;5046136;28;20075;-67
2022/03/19 08:29:42;;;;;;;17.63;4.60;;;;;;;;;;5049785;28;20080;-67
2022/03/19 08:32:10;;;;;;;19.13;5.10;;;;;;;;;;5045906;28;20450;-67
2022/03/19 08:34:36;;;;;;;20.90;4.97;;;;;;;;;;5037261;28;20048;-67
2022/03/19 08:37:01;;;;;;;18.07;4.47;;;;;;;;;;5038752;28;20868;-67
2022/03/19 08:42:12;;;;;;;24.57;4.07;;;;;;;;;;5039041;28;20503;-67
2022/03/19 08:44:38;;;;;;;21.10;4.70;;;;;;;;;;5049211;28;20048;-70
2022/03/19 08:47:04;;;;;;;19.30;4.50;;;;;;;;;;5049417;28;20052;-69
2022/03/19 08:49:30;;;;;;;25.07;7.20;;;;;;;;;;5048947;28;20426;-69
2022/03/19 08:51:56;;;;;;;15.50;4.30;;;;;;;;;;5049353;28;20048;-70
2022/03/19 08:54:23;;;;;;;15.50;4.27;;;;;;;;;;5048768;28;20085;-69
2022/03/19 08:56:50;;;;;;;36.93;5.47;;;;;;;;;;5049132;28;20049;-69
2022/03/19 08:59:16;;;;;;;29.67;5.47;;;;;;;;;;5048493;28;20037;-69
2022/03/19 09:01:43;;;;;;;22.17;5.00;;;;;;;;;;5048935;28;20065;-70
2022/03/19 09:04:09;;;;;;;26.87;4.83;;;;;;;;;;5048081;28;20083;-69
2022/03/19 09:06:36;;;;;;;11.07;3.23;;;;;;;;;;5046936;28;20051;-69
2022/03/19 09:09:03;;;;;;;12.53;4.27;;;;;;;;;;5047646;28;20041;-70
2022/03/19 09:11:30;;;;;;;15.83;3.47;;;;;;;;;;5047896;28;20053;-69
2022/03/19 09:13:56;;;;;;;10.90;3.60;;;;;;;;;;5047903;28;20403;-69
2022/03/19 09:16:23;;;;;;;13.93;3.07;;;;;;;;;;5048222;28;20045;-68
2022/03/19 09:18:50;;;;;;;13.63;2.83;;;;;;;;;;5048058;28;20056;-69
2022/03/19 09:21:17;;;;;;;12.97;3.20;;;;;;;;;;5048086;28;20084;-69
2022/03/19 09:23:45;;;;;;;10.03;3.60;;;;;;;;;;5048173;28;20503;-69
2022/03/19 09:26:12;;;;;;;11.67;3.07;;;;;;;;;;5048201;28;20049;-69
2022/03/19 09:28:38;;;;;;;8.50;2.60;;;;;;;;;;5048305;28;20098;-69
2022/03/19 09:31:04;;;;;;;9.43;2.70;;;;;;;;;;5046735;28;20053;-69
2022/03/19 09:33:30;;;;;;;10.57;2.97;;;;;;;;;;5047848;28;20068;-68
2022/03/19 09:35:57;;;;;;;15.77;3.37;;;;;;;;;;5047913;28;20518;-68
2022/03/19 09:38:23;;;;;;;12.10;2.93;;;;;;;;;;5048390;28;20053;-69
2022/03/19 09:40:50;;;;;;;8.83;2.67;;;;;;;;;;5047858;28;20530;-69
2022/03/19 09:43:16;;;;;;;12.13;2.73;;;;;;;;;;5048290;28;20175;-69
2022/03/19 09:45:42;;;;;;;9.30;2.87;;;;;;;;;;5047922;28;20160;-69
2022/03/19 09:48:08;;;;;;;11.20;2.70;;;;;;;;;;5048319;28;20049;-69
2022/03/19 09:50:35;;;;;;;9.63;3.03;;;;;;;;;;5048142;28;20198;-68
2022/03/19 09:53:02;;;;;;;8.40;2.43;;;;;;;;;;5049746;28;20057;-68
2022/03/19 09:55:29;;;;;;;7.73;2.53;;;;;;;;;;5052435;28;20045;-68
2022/03/19 09:57:56;;;;;;;9.63;2.40;;;;;;;;;;5051416;28;20080;-69
2022/03/19 10:00:22;;;;;;;9.80;2.53;;;;;;;;;;5052127;28;20090;-69
2022/03/19 10:02:55;;;;;;;8.83;2.57;;;;;;;;;;5052050;28;20045;-69
2022/03/19 10:10:51;;;;;;;10.70;2.57;;;;;;;;;;5051828;28;20049;-69
2022/03/19 10:13:18;;;;;;;11.60;2.90;;;;;;;;;;5051925;28;20415;-69
2022/03/19 10:15:44;;;;;;;11.57;2.90;;;;;;;;;;5051668;28;20045;-69
2022/03/19 10:18:10;;;;;;;11.67;2.80;;;;;;;;;;5051930;28;20041;-68
2022/03/19 10:20:37;;;;;;;10.73;2.20;;;;;;;;;;5051145;28;20556;-68
2022/03/19 10:23:03;;;;;;;9.23;2.40;;;;;;;;;;5051930;28;20041;-68
2022/03/19 10:25:30;;;;;;;12.63;3.17;;;;;;;;;;5051531;28;20077;-68
2022/03/19 10:28:08;;;;;;;7.90;2.13;;;;;;;;;;5051599;28;20798;-68
2022/03/19 10:30:39;;;;;;;7.27;2.50;;;;;;;;;;5051659;28;20514;-68
2022/03/19 10:33:07;;;;;;;7.70;2.40;;;;;;;;;;5051081;28;20427;-69
2022/03/19 10:35:34;;;;;;;7.27;2.00;;;;;;;;;;5051428;28;20068;-68
2022/03/19 10:38:05;;;;;;;6.77;2.03;;;;;;;;;;5051465;28;20084;-69
2022/03/19 10:40:40;;;;;;;8.07;2.10;;;;;;;;;;5051413;28;20083;-69
2022/03/19 10:43:07;;;;;;;8.20;1.60;;;;;;;;;;5051136;28;20533;-69
2022/03/19 10:45:33;;;;;;;11.93;1.80;;;;;;;;;;5051170;28;20048;-68
2022/03/19 10:48:02;;;;;;;8.80;2.50;;;;;;;;;;5050609;28;20083;-69
2022/03/19 10:50:28;;;;;;;8.90;2.27;;;;;;;;;;5051185;28;20044;-69
2022/03/19 10:52:56;;;;;;;8.27;2.10;;;;;;;;;;5051286;28;20041;-69
2022/03/19 10:55:22;;;;;;;7.70;2.10;;;;;;;;;;5051112;28;20089;-69
2022/03/19 10:57:48;;;;;;;9.13;2.60;;;;;;;;;;5050747;28;20047;-69
2022/03/19 11:00:16;;;;;;;8.87;3.30;;;;;;;;;;5051013;28;20477;-69
2022/03/19 11:02:45;;;;;;;10.50;2.17;;;;;;;;;;5051078;28;20053;-69
2022/03/19 11:05:16;;;;;;;11.73;2.73;;;;;;;;;;5050355;28;20045;-69
2022/03/19 11:07:44;;;;;;;13.13;2.87;;;;;;;;;;5050794;28;20037;-69
2022/03/19 11:10:11;;;;;;;9.17;2.33;;;;;;;;;;5050939;28;20067;-69
2022/03/19 11:12:40;;;;;;;7.80;2.10;;;;;;;;;;5050751;28;20045;-69
2022/03/19 11:15:09;;;;;;;12.20;1.87;;;;;;;;;;5050724;28;20049;-69
2022/03/19 11:17:36;;;;;;;7.80;2.17;;;;;;;;;;5050322;28;20143;-69
2022/03/19 11:20:02;;;;;;;7.37;1.70;;;;;;;;;;5050852;28;20040;-69
2022/03/19 11:22:30;;;;;;;8.63;1.93;;;;;;;;;;5050798;28;20068;-69
2022/03/19 11:25:16;;;;;;;8.97;2.07;;;;;;;;;;5049906;28;20074;-69
2022/03/19 11:27:44;;;;;;;6.67;1.70;;;;;;;;;;5050530;28;20407;-69
2022/03/19 11:30:17;;;;;;;6.37;1.30;;;;;;;;;;5050555;28;20044;-69
2022/03/19 11:33:02;;;;;;;6.53;1.73;;;;;;;;;;5050345;28;20053;-69
2022/03/19 11:35:28;;;;;;;8.17;1.80;;;;;;;;;;5050444;28;20049;-69
2022/03/19 11:38:02;;;;;;;4.10;1.23;;;;;;;;;;5050170;28;20048;-69
2022/03/19 11:40:30;;;;;;;6.27;1.70;;;;;;;;;;5049924;28;20036;-69
2022/03/19 11:42:57;;;;;;;6.17;1.77;;;;;;;;;;5050200;28;20047;-69
2022/03/19 11:45:23;;;;;;;6.63;1.70;;;;;;;;;;5050307;28;20044;-69
2022/03/19 11:47:50;;;;;;;6.70;1.90;;;;;;;;;;5049879;28;20049;-69
2022/03/19 11:50:20;;;;;;;6.43;1.57;;;;;;;;;;5050169;28;20132;-69
2022/03/19 11:52:46;;;;;;;6.83;1.60;;;;;;;;;;5050008;28;20119;-69
2022/03/19 11:55:13;;;;;;;7.33;1.90;;;;;;;;;;5050042;28;20159;-69
2022/03/19 11:57:56;;;;;;;5.43;1.63;;;;;;;;;;5049873;28;20045;-69
2022/03/19 12:00:24;;;;;;;6.00;1.60;;;;;;;;;;5050150;28;20060;-70
2022/03/19 12:03:03;;;;;;;7.27;2.03;;;;;;;;;;5050083;28;20155;-70
2022/03/19 12:05:29;;;;;;;5.70;1.70;;;;;;;;;;5050142;28;20045;-69
2022/03/19 12:07:57;;;;;;;4.73;1.60;;;;;;;;;;5049698;28;20419;-70
2022/03/19 12:10:31;;;;;;;5.33;1.37;;;;;;;;;;5049860;28;20483;-69
2022/03/19 12:12:58;;;;;;;4.90;1.60;;;;;;;;;;5049911;28;20052;-70
2022/03/19 12:15:33;;;;;;;5.37;1.60;;;;;;;;;;5049366;28;20099;-69
2022/03/19 12:18:17;;;;;;;5.10;1.37;;;;;;;;;;5049679;28;20160;-69
2022/03/19 12:20:44;;;;;;;6.87;1.60;;;;;;;;;;5048002;28;20083;-69
2022/03/19 12:23:11;;;;;;;5.70;1.60;;;;;;;;;;5049819;28;20054;-69
2022/03/19 12:25:42;;;;;;;4.27;1.50;;;;;;;;;;5048996;28;20048;-69
2022/03/19 12:28:08;;;;;;;4.67;1.80;;;;;;;;;;5049907;28;20052;-69
2022/03/19 12:30:35;;;;;;;6.70;1.93;;;;;;;;;;5049136;28;20049;-69
2022/03/19 12:33:01;;;;;;;4.00;1.50;;;;;;;;;;5049122;28;20051;-69
2022/03/19 12:35:44;;;;;;;3.90;1.63;;;;;;;;;;5049497;28;20049;-70
2022/03/19 12:38:11;;;;;;;4.90;1.60;;;;;;;;;;5048729;28;20049;-69
2022/03/19 12:43:23;;;;;;;3.80;1.70;;;;;;;;;;5049001;28;20483;-69
2022/03/19 12:45:50;;;;;;;3.50;1.40;;;;;;;;;;5049131;28;20479;-69
2022/03/19 12:48:19;;;;;;;3.77;1.77;;;;;;;;;;5049040;28;20047;-69
2022/03/19 12:50:49;;;;;;;5.80;2.30;;;;;;;;;;5047958;28;20076;-70
2022/03/19 12:53:15;;;;;;;4.00;1.70;;;;;;;;;;5045407;28;20044;-70
2022/03/19 12:55:41;;;;;;;4.93;1.57;;;;;;;;;;5049174;28;20602;-69
2022/03/19 12:58:07;;;;;;;4.47;1.70;;;;;;;;;;5037098;28;20037;-70
2022/03/19 13:00:33;;;;;;;4.43;1.70;;;;;;;;;;5029256;28;20149;-70
2022/03/19 13:02:59;;;;;;;6.37;2.07;;;;;;;;;;5027915;28;20462;-70
2022/03/19 13:05:25;;;;;;;5.23;1.80;;;;;;;;;;5029610;28;20049;-70
2022/03/19 13:08:01;;;;;;;4.57;1.50;;;;;;;;;;5037364;28;20781;-69
2022/03/19 13:10:27;;;;;;;3.87;1.30;;;;;;;;;;5049454;28;20052;-70
2022/03/19 13:13:11;;;;;;;5.43;1.73;;;;;;;;;;5047094;28;20537;-69
2022/03/19 13:15:46;;;;;;;7.77;1.97;;;;;;;;;;5047963;28;20052;-69
2022/03/19 13:18:12;;;;;;;3.53;1.23;;;;;;;;;;5047506;28;20615;-70
2022/03/19 13:20:39;;;;;;;5.47;1.83;;;;;;;;;;5049123;28;20041;-70
2022/03/19 13:23:05;;;;;;;4.93;1.13;;;;;;;;;;5047396;28;20041;-69
2022/03/19 13:25:31;;;;;;;4.13;1.40;;;;;;;;;;5041385;28;20103;-69
2022/03/19 13:28:04;;;;;;;5.07;1.80;;;;;;;;;;5042486;28;20419;-70
2022/03/19 13:30:30;;;;;;;5.10;1.25;;;;;;;;;;5041265;28;20053;-69
2022/03/19 13:32:59;;;;;;;4.20;1.30;;;;;;;;;;5044682;28;20048;-69
2022/03/19 13:35:36;;;;;;;2.80;1.20;;;;;;;;;;5047079;28;20053;-70
2022/03/19 13:38:09;;;;;;;5.37;1.50;;;;;;;;;;5048084;28;20084;-69
2022/03/19 13:40:35;;;;;;;5.53;2.25;;;;;;;;;;5047359;28;20419;-69
2022/03/19 13:43:01;;;;;;;7.07;2.10;;;;;;;;;;5048175;28;20051;-70
2022/03/19 13:45:27;;;;;;;5.37;2.13;;;;;;;;;;5047710;28;20037;-70
2022/03/19 13:48:02;;;;;;;6.03;1.60;;;;;;;;;;5048084;28;20055;-70
2022/03/19 13:50:28;;;;;;;5.90;1.67;;;;;;;;;;5048418;28;20175;-70
2022/03/19 13:52:56;;;;;;;4.60;1.60;;;;;;;;;;5048101;28;20439;-70
2022/03/19 13:55:22;;;;;;;5.80;1.63;;;;;;;;;;5048347;28;20168;-70
2022/03/19 13:57:53;;;;;;;4.13;1.57;;;;;;;;;;5033020;28;20504;-69
2022/03/19 14:00:24;;;;;;;4.70;1.53;;;;;;;;;;5028193;28;20530;-69
2022/03/19 14:02:54;;;;;;;5.13;1.43;;;;;;;;;;5028009;28;20090;-69
2022/03/19 14:05:27;;;;;;;5.40;1.80;;;;;;;;;;5026814;28;20049;-69
2022/03/19 14:07:58;;;;;;;4.10;1.53;;;;;;;;;;5028160;28;20045;-69
2022/03/19 14:10:28;;;;;;;6.87;1.73;;;;;;;;;;5028083;28;20447;-70
2022/03/19 14:13:20;;;;;;;6.30;1.70;;;;;;;;;;5027637;28;20057;-69
2022/03/19 14:15:51;;;;;;;4.67;1.70;;;;;;;;;;5045505;28;20053;-70
2022/03/19 14:18:21;;;;;;;4.50;1.50;;;;;;;;;;5043501;28;20167;-70
2022/03/19 14:20:47;;;;;;;5.40;1.80;;;;;;;;;;5047440;28;20080;-70
2022/03/19 14:23:13;;;;;;;5.00;1.40;;;;;;;;;;5047614;28;20048;-69
2022/03/19 14:25:39;;;;;;;5.53;1.63;;;;;;;;;;5046240;28;20400;-69
2022/03/19 14:28:09;;;;;;;5.47;1.97;;;;;;;;;;5045822;28;20489;-69
2022/03/19 14:30:36;;;;;;;4.60;1.77;;;;;;;;;;5046083;28;20588;-69
2022/03/19 14:33:02;;;;;;;4.27;1.40;;;;;;;;;;5042437;28;20053;-69
2022/03/19 14:35:41;;;;;;;4.47;1.60;;;;;;;;;;5049710;28;20068;-69
2022/03/19 14:38:08;;;;;;;3.87;1.40;;;;;;;;;;5037122;28;20053;-69
2022/03/19 14:40:34;;;;;;;5.40;1.47;;;;;;;;;;5049129;28;20064;-69
2022/03/19 14:43:00;;;;;;;7.00;1.90;;;;;;;;;;5050664;28;20152;-69
2022/03/19 14:45:26;;;;;;;6.93;1.90;;;;;;;;;;5049532;28;20045;-70
2022/03/19 14:47:52;;;;;;;6.03;1.83;;;;;;;;;;5051170;28;20514;-69
2022/03/19 14:50:18;;;;;;;6.63;1.70;;;;;;;;;;5050145;28;20038;-69
2022/03/19 14:52:44;;;;;;;5.93;1.30;;;;;;;;;;5039862;28;20041;-69
2022/03/19 14:55:10;;;;;;;7.83;1.63;;;;;;;;;;5051156;28;20060;-70